createdAt,value
2018-12-03T00:00:24.969Z,9.27
2018-12-03T00:02:57.808Z,11.23
2018-12-03T00:05:26.147Z,10.03
2018-12-03T00:07:54.439Z,14.20
2018-12-03T00:10:22.675Z,10.37
2018-12-03T00:12:50.900Z,13.53
2018-12-03T00:15:19.269Z,14.50
2018-12-03T00:17:47.595Z,14.03
2018-12-03T00:20:15.935Z,13.67
2018-12-03T00:22:44.260Z,14.90
2018-12-03T00:25:12.549Z,14.00
2018-12-03T00:27:42.325Z,16.93
2018-12-03T00:30:10.672Z,16.53
2018-12-03T00:32:38.948Z,16.87
2018-12-03T00:35:08.951Z,16.77
2018-12-03T00:37:37.200Z,19.83
2018-12-03T00:40:06.788Z,16.00
2018-12-03T00:42:35.093Z,16.10
2018-12-03T00:45:03.398Z,20.27
2018-12-03T00:47:31.681Z,19.97
2018-12-03T00:49:59.879Z,18.83
2018-12-03T00:52:28.090Z,19.27
2018-12-03T00:54:56.394Z,23.17
2018-12-03T00:57:24.643Z,23.50
2018-12-03T00:59:52.928Z,20.40
2018-12-03T01:02:25.044Z,20.17
2018-12-03T01:04:53.669Z,22.07
2018-12-03T01:07:22.217Z,21.07
2018-12-03T01:09:50.517Z,21.53
2018-12-03T01:12:18.799Z,20.17
2018-12-03T01:14:47.158Z,21.70
2018-12-03T01:17:15.464Z,22.43
2018-12-03T01:19:43.755Z,19.57
2018-12-03T01:22:12.057Z,20.57
2018-12-03T01:24:40.632Z,21.83
2018-12-03T01:27:08.882Z,18.67
2018-12-03T01:29:37.135Z,21.30
2018-12-03T01:32:05.433Z,19.70
2018-12-03T01:34:33.935Z,20.30
2018-12-03T01:37:02.186Z,21.60
2018-12-03T01:42:23.147Z,21.10
2018-12-03T01:44:51.491Z,21.67
2018-12-03T01:47:19.753Z,23.77
2018-12-03T01:49:48.103Z,19.30
2018-12-03T01:52:16.322Z,19.93
2018-12-03T01:54:44.543Z,22.93
2018-12-03T01:57:12.853Z,18.60
2018-12-03T01:59:41.163Z,21.57
2018-12-03T02:02:09.452Z,24.87
2018-12-03T02:04:37.660Z,23.10
2018-12-03T02:07:05.968Z,19.30
2018-12-03T02:09:34.489Z,24.30
2018-12-03T02:12:02.690Z,24.37
2018-12-03T02:14:30.904Z,20.13
2018-12-03T02:16:59.182Z,24.50
2018-12-03T02:19:27.413Z,18.37
2018-12-03T02:21:55.659Z,21.83
2018-12-03T02:24:23.921Z,27.70
2018-12-03T02:26:52.229Z,18.57
2018-12-03T02:29:20.456Z,21.77
2018-12-03T02:31:48.632Z,22.63
2018-12-03T02:34:16.944Z,21.90
2018-12-03T02:36:45.220Z,19.93
2018-12-03T02:39:13.446Z,22.80
2018-12-03T02:41:41.673Z,18.77
2018-12-03T02:44:09.927Z,22.17
2018-12-03T02:46:38.148Z,25.07
2018-12-03T02:49:06.590Z,18.13
2018-12-03T02:51:34.854Z,19.87
2018-12-03T02:54:03.177Z,24.60
2018-12-03T02:56:31.403Z,20.37
2018-12-03T02:58:59.637Z,21.13
2018-12-03T03:01:27.864Z,20.47
2018-12-03T03:03:56.129Z,22.73
2018-12-03T03:06:24.437Z,22.03
2018-12-03T03:08:52.724Z,27.20
2018-12-03T03:11:20.969Z,22.83
2018-12-03T03:13:49.182Z,23.33
2018-12-03T03:16:17.364Z,19.90
2018-12-03T03:18:45.615Z,23.33
2018-12-03T03:21:13.893Z,20.20
2018-12-03T03:23:42.148Z,22.13
2018-12-03T03:26:10.388Z,19.33
2018-12-03T03:28:38.612Z,21.40
2018-12-03T03:31:06.916Z,25.00
2018-12-03T03:33:35.199Z,22.40
2018-12-03T03:36:03.436Z,21.03
2018-12-03T03:38:31.667Z,21.30
2018-12-03T03:40:59.879Z,21.03
2018-12-03T03:43:28.175Z,18.70
2018-12-03T03:45:56.446Z,21.03
2018-12-03T03:48:24.851Z,19.17
2018-12-03T03:50:53.069Z,18.63
2018-12-03T03:53:21.281Z,18.83
2018-12-03T03:55:49.681Z,21.13
2018-12-03T03:58:17.877Z,22.43
2018-12-03T04:00:46.093Z,21.77
2018-12-03T04:03:14.417Z,18.97
2018-12-03T04:05:42.641Z,22.73
2018-12-03T04:08:10.885Z,22.70
2018-12-03T04:10:39.092Z,21.73
2018-12-03T04:13:07.389Z,20.03
2018-12-03T04:15:35.687Z,19.97
2018-12-03T04:18:03.902Z,23.67
2018-12-03T04:20:32.145Z,19.87
2018-12-03T04:23:00.417Z,19.63
2018-12-03T04:25:28.683Z,20.33
2018-12-03T04:27:56.945Z,20.53
2018-12-03T04:30:25.145Z,21.83
2018-12-03T04:32:54.063Z,25.00
2018-12-03T04:35:23.286Z,17.73
2018-12-03T04:37:51.581Z,17.53
2018-12-03T04:40:19.881Z,20.03
2018-12-03T04:42:48.237Z,17.87
2018-12-03T04:45:17.709Z,19.47
2018-12-03T04:47:46.936Z,17.93
2018-12-03T04:50:16.241Z,18.43
2018-12-03T04:52:44.473Z,16.27
2018-12-03T04:55:13.477Z,16.03
2018-12-03T04:57:41.734Z,16.10
2018-12-03T05:00:15.961Z,16.43
2018-12-03T05:02:44.923Z,17.47
2018-12-03T05:05:13.141Z,19.47
2018-12-03T05:07:41.381Z,16.43
2018-12-03T05:10:14.258Z,16.90
2018-12-03T05:12:43.185Z,17.83
2018-12-03T05:15:12.608Z,17.43
2018-12-03T05:17:41.191Z,17.77
2018-12-03T05:20:13.717Z,19.40
2018-12-03T05:22:41.974Z,19.20
2018-12-03T05:25:10.794Z,21.00
2018-12-03T05:27:39.132Z,18.93
2018-12-03T05:30:11.630Z,18.73
2018-12-03T05:32:40.293Z,18.80
2018-12-03T05:35:10.090Z,19.03
2018-12-03T05:37:38.400Z,18.43
2018-12-03T05:40:10.874Z,18.13
2018-12-03T05:42:39.143Z,18.70
2018-12-03T05:45:08.438Z,16.63
2018-12-03T05:47:36.727Z,18.00
2018-12-03T05:50:06.894Z,17.73
2018-12-03T05:52:35.109Z,17.63
2018-12-03T05:55:03.420Z,18.50
2018-12-03T05:57:31.694Z,16.47
2018-12-03T05:59:59.965Z,16.47
2018-12-03T06:02:28.239Z,18.87
2018-12-03T06:04:56.532Z,17.60
2018-12-03T06:07:24.968Z,16.83
2018-12-03T06:09:53.202Z,17.97
2018-12-03T06:12:21.444Z,18.07
2018-12-03T06:14:49.766Z,15.33
2018-12-03T06:17:17.998Z,18.10
2018-12-03T06:22:39.454Z,16.80
2018-12-03T06:25:12.349Z,18.90
2018-12-03T06:27:40.573Z,18.83
2018-12-03T06:30:10.892Z,17.57
2018-12-03T06:32:39.129Z,17.27
2018-12-03T06:35:09.074Z,16.53
2018-12-03T06:37:37.279Z,16.33
2018-12-03T06:40:13.278Z,15.93
2018-12-03T06:42:41.519Z,16.07
2018-12-03T06:45:12.177Z,16.23
2018-12-03T06:47:42.702Z,16.73
2018-12-03T06:50:11.305Z,14.90
2018-12-03T06:52:39.740Z,16.27
2018-12-03T06:55:09.578Z,18.27
2018-12-03T06:57:37.904Z,15.20
2018-12-03T07:00:14.825Z,16.10
2018-12-03T07:02:43.398Z,15.33
2018-12-03T07:05:12.067Z,14.97
2018-12-03T07:07:40.904Z,12.30
2018-12-03T07:10:19.179Z,11.90
2018-12-03T07:12:51.972Z,11.20
2018-12-03T07:15:21.486Z,12.50
2018-12-03T07:17:51.274Z,11.13
2018-12-03T07:20:19.488Z,15.83
2018-12-03T07:22:47.722Z,13.10
2018-12-03T07:25:15.973Z,10.63
2018-12-03T07:27:44.222Z,10.50
2018-12-03T07:30:28.333Z,11.13
2018-12-03T07:32:56.571Z,13.97
2018-12-03T07:35:24.828Z,10.50
2018-12-03T07:37:55.193Z,11.77
2018-12-03T07:40:23.416Z,12.63
2018-12-03T07:42:51.658Z,10.83
2018-12-03T07:45:21.242Z,11.73
2018-12-03T07:47:49.654Z,14.20
2018-12-03T07:50:18.946Z,10.83
2018-12-03T07:52:47.264Z,13.30
2018-12-03T07:55:16.758Z,14.20
2018-12-03T07:57:46.654Z,11.33
2018-12-03T08:00:18.440Z,13.53
2018-12-03T08:02:46.730Z,17.60
2018-12-03T08:05:14.995Z,11.53
2018-12-03T08:07:43.326Z,12.80
2018-12-03T08:10:13.846Z,13.27
2018-12-03T08:12:42.172Z,17.67
2018-12-03T08:15:11.995Z,11.57
2018-12-03T08:17:40.414Z,14.23
2018-12-03T08:20:26.859Z,11.63
2018-12-03T08:22:57.698Z,18.67
2018-12-03T08:25:25.997Z,13.77
2018-12-03T08:27:54.252Z,18.60
2018-12-03T08:30:22.554Z,14.83
2018-12-03T08:32:50.780Z,14.43
2018-12-03T08:35:19.214Z,15.53
2018-12-03T08:37:47.506Z,12.47
2018-12-03T08:40:17.820Z,15.87
2018-12-03T08:42:48.407Z,15.47
2018-12-03T08:45:16.672Z,13.20
2018-12-03T08:47:45.432Z,17.07
2018-12-03T08:50:16.100Z,15.07
2018-12-03T08:52:44.367Z,17.00
2018-12-03T08:55:12.915Z,18.80
2018-12-03T08:57:41.145Z,20.10
2018-12-03T09:00:13.928Z,15.00
2018-12-03T09:03:02.459Z,12.87
2018-12-03T09:05:36.751Z,14.50
2018-12-03T09:08:06.029Z,14.17
2018-12-03T09:10:34.306Z,12.27
2018-12-03T09:13:23.418Z,18.40
2018-12-03T09:15:55.832Z,14.37
2018-12-03T09:18:24.274Z,14.17
2018-12-03T09:20:52.588Z,17.50
2018-12-03T09:23:20.866Z,17.17
2018-12-03T09:25:49.069Z,14.13
2018-12-03T09:28:17.361Z,19.53
2018-12-03T09:30:45.686Z,21.00
2018-12-03T09:33:13.915Z,26.20
2018-12-03T09:35:42.209Z,24.97
2018-12-03T09:38:10.474Z,16.13
2018-12-03T09:40:38.862Z,16.73
2018-12-03T09:43:07.094Z,17.87
2018-12-03T09:45:35.373Z,21.07
2018-12-03T09:48:03.654Z,19.03
2018-12-03T09:50:31.884Z,20.37
2018-12-03T09:53:07.120Z,17.57
2018-12-03T09:55:35.435Z,15.33
2018-12-03T09:58:07.457Z,19.43
2018-12-03T10:00:35.827Z,20.50
2018-12-03T10:03:12.812Z,18.07
2018-12-03T10:05:48.730Z,16.93
2018-12-03T10:08:17.022Z,17.13
2018-12-03T10:10:49.722Z,23.87
2018-12-03T10:13:17.961Z,18.60
2018-12-03T10:15:46.221Z,20.03
2018-12-03T10:18:14.724Z,20.80
2018-12-03T10:20:47.762Z,21.97
2018-12-03T10:23:16.099Z,22.00
2018-12-03T10:25:44.456Z,21.53
2018-12-03T10:28:12.732Z,22.03
2018-12-03T10:30:40.996Z,19.33
2018-12-03T10:33:09.271Z,25.33
2018-12-03T10:35:38.790Z,21.63
2018-12-03T10:38:15.729Z,20.33
2018-12-03T10:40:47.795Z,17.10
2018-12-03T10:43:16.059Z,16.53
2018-12-03T10:45:44.390Z,20.40
2018-12-03T10:48:12.689Z,20.10
2018-12-03T10:50:40.950Z,20.57
2018-12-03T10:53:09.256Z,22.20
2018-12-03T10:55:41.617Z,20.70
2018-12-03T10:58:11.299Z,22.33
2018-12-03T11:00:44.885Z,20.23
2018-12-03T11:03:13.761Z,19.67
2018-12-03T11:05:47.917Z,19.83
2018-12-03T11:08:22.413Z,22.73
2018-12-03T11:10:51.627Z,16.13
2018-12-03T11:13:20.053Z,24.67
2018-12-03T11:15:48.300Z,21.23
2018-12-03T11:18:16.550Z,20.33
2018-12-03T11:20:44.819Z,23.17
2018-12-03T11:23:19.384Z,18.73
2018-12-03T11:25:47.643Z,20.30
2018-12-03T11:28:16.900Z,20.37
2018-12-03T11:30:49.825Z,22.50
2018-12-03T11:33:23.427Z,25.03
2018-12-03T11:35:52.785Z,20.83
2018-12-03T11:38:57.091Z,26.10
2018-12-03T11:41:25.393Z,34.97
2018-12-03T11:43:53.709Z,21.70
2018-12-03T11:46:22.026Z,20.93
2018-12-03T11:48:50.314Z,29.27
2018-12-03T11:51:18.680Z,25.83
2018-12-03T11:53:47.002Z,19.07
2018-12-03T11:56:15.317Z,25.90
2018-12-03T11:58:43.618Z,20.97
2018-12-03T12:01:11.917Z,19.73
2018-12-03T12:03:42.996Z,23.20
2018-12-03T12:06:11.188Z,18.53
2018-12-03T12:08:39.459Z,22.27
2018-12-03T12:11:07.771Z,26.33
2018-12-03T12:13:36.115Z,18.00
2018-12-03T12:16:04.527Z,19.63
2018-12-03T12:18:32.774Z,18.13
2018-12-03T12:21:01.051Z,17.47
2018-12-03T12:23:29.326Z,17.10
2018-12-03T12:25:57.606Z,21.03
2018-12-03T12:28:25.963Z,21.43
2018-12-03T12:30:54.267Z,23.10
2018-12-03T12:33:22.592Z,22.03
2018-12-03T12:35:50.845Z,18.80
2018-12-03T12:38:19.172Z,22.60
2018-12-03T12:40:47.414Z,22.33
2018-12-03T12:43:15.780Z,16.37
2018-12-03T12:45:56.267Z,22.40
2018-12-03T12:48:24.528Z,23.57
2018-12-03T12:50:52.767Z,19.87
2018-12-03T12:53:21.004Z,24.03
2018-12-03T12:55:49.264Z,25.33
2018-12-03T12:58:17.595Z,25.60
2018-12-03T13:00:45.823Z,18.20
2018-12-03T13:03:14.125Z,17.13
2018-12-03T13:05:42.409Z,21.40
2018-12-03T13:08:10.663Z,22.83
2018-12-03T13:10:38.939Z,20.67
2018-12-03T13:13:07.237Z,22.37
2018-12-03T13:15:35.515Z,22.40
2018-12-03T13:18:03.890Z,19.30
2018-12-03T13:20:32.113Z,17.73
2018-12-03T13:23:06.956Z,19.90
2018-12-03T13:25:35.254Z,26.13
2018-12-03T13:28:03.644Z,21.37
2018-12-03T13:30:31.970Z,23.90
2018-12-03T13:33:00.266Z,20.57
2018-12-03T13:35:29.252Z,20.20
2018-12-03T13:37:57.110Z,19.73
2018-12-03T13:40:25.436Z,27.50
2018-12-03T13:42:53.760Z,20.80
2018-12-03T13:45:23.988Z,22.77
2018-12-03T13:47:53.199Z,19.40
2018-12-03T13:50:21.431Z,21.50
2018-12-03T13:52:49.707Z,21.07
2018-12-03T13:55:19.116Z,19.13
2018-12-03T13:57:47.358Z,17.47
2018-12-03T14:00:21.036Z,24.90
2018-12-03T14:03:00.339Z,22.93
2018-12-03T14:05:30.396Z,19.20
2018-12-03T14:08:09.593Z,20.87
2018-12-03T14:11:54.147Z,21.30
2018-12-03T14:16:36.288Z,21.03
2018-12-03T14:19:09.661Z,23.63
2018-12-03T14:21:41.862Z,22.37
2018-12-03T14:24:19.767Z,23.17
2018-12-03T14:26:48.037Z,17.47
2018-12-03T14:29:16.294Z,20.67
2018-12-03T14:31:44.606Z,19.70
2018-12-03T14:34:19.914Z,22.73
2018-12-03T14:36:48.161Z,21.93
2018-12-03T14:39:16.419Z,20.27
2018-12-03T14:41:44.735Z,18.17
2018-12-03T14:44:13.051Z,20.27
2018-12-03T14:46:41.353Z,19.83
2018-12-03T14:49:09.701Z,22.10
2018-12-03T14:51:38.069Z,21.87
2018-12-03T14:54:06.459Z,18.70
2018-12-03T14:56:34.744Z,18.93
2018-12-03T14:59:03.066Z,23.53
2018-12-03T15:01:32.220Z,23.87
2018-12-03T15:04:05.092Z,22.07
2018-12-03T15:06:33.357Z,20.13
2018-12-03T15:09:01.701Z,26.73
2018-12-03T15:11:29.985Z,24.93
2018-12-03T15:13:58.298Z,28.17
2018-12-03T15:16:26.607Z,29.87
2018-12-03T15:18:54.849Z,27.33
2018-12-03T15:21:23.083Z,26.50
2018-12-03T15:23:51.446Z,21.10
2018-12-03T15:26:19.782Z,25.93
2018-12-03T15:28:48.099Z,24.07
2018-12-03T15:31:16.356Z,22.27
2018-12-03T15:33:44.642Z,26.90
2018-12-03T15:36:12.885Z,20.97
2018-12-03T15:38:41.091Z,26.60
2018-12-03T15:41:09.333Z,25.70
2018-12-03T15:43:38.829Z,24.87
2018-12-03T15:46:07.208Z,28.97
2018-12-03T15:48:35.520Z,21.30
2018-12-03T15:51:03.793Z,22.43
2018-12-03T15:53:32.063Z,21.00
2018-12-03T15:56:00.462Z,24.80
2018-12-03T15:58:28.869Z,25.23
2018-12-03T16:00:57.197Z,19.47
2018-12-03T16:03:25.618Z,27.20
2018-12-03T16:05:54.548Z,22.40
2018-12-03T16:08:22.994Z,24.50
2018-12-03T16:10:51.298Z,21.53
2018-12-03T16:13:19.688Z,19.70
2018-12-03T16:15:48.163Z,23.80
2018-12-03T16:18:16.752Z,20.70
2018-12-03T16:20:45.161Z,22.27
2018-12-03T16:23:13.430Z,21.53
2018-12-03T16:25:41.744Z,26.33
2018-12-03T16:28:10.176Z,25.30
2018-12-03T16:30:38.455Z,18.07
2018-12-03T16:33:06.764Z,23.17
2018-12-03T16:35:36.685Z,24.20
2018-12-03T16:38:04.940Z,25.40
2018-12-03T16:40:33.243Z,20.17
2018-12-03T16:43:01.527Z,20.70
2018-12-03T16:45:29.897Z,24.83
2018-12-03T16:47:58.183Z,23.17
2018-12-03T16:50:26.539Z,21.30
2018-12-03T16:52:54.872Z,32.93
2018-12-03T16:55:23.220Z,29.80
2018-12-03T16:57:51.810Z,27.73
2018-12-03T17:00:20.142Z,27.03
2018-12-03T17:02:48.393Z,29.63
2018-12-03T17:05:16.653Z,25.07
2018-12-03T17:07:44.981Z,24.47
2018-12-03T17:10:17.761Z,32.03
2018-12-03T17:12:46.465Z,22.57
2018-12-03T17:15:14.736Z,28.83
2018-12-03T17:17:43.020Z,25.97
2018-12-03T17:20:13.197Z,25.33
2018-12-03T17:23:50.702Z,27.10
2018-12-03T17:26:18.977Z,29.47
2018-12-03T17:28:47.190Z,28.40
2018-12-03T17:34:08.790Z,30.27
2018-12-03T17:36:43.234Z,34.87
2018-12-03T17:39:11.509Z,25.67
2018-12-03T17:41:39.764Z,28.63
2018-12-03T17:44:08.382Z,28.07
2018-12-03T17:46:36.685Z,30.83
2018-12-03T17:49:04.951Z,26.40
2018-12-03T17:51:33.149Z,31.73
2018-12-03T17:54:01.500Z,32.70
2018-12-03T17:56:29.757Z,27.97
2018-12-03T17:58:57.990Z,28.50
2018-12-03T18:01:26.265Z,28.60
2018-12-03T18:06:47.327Z,23.93
2018-12-03T18:09:15.726Z,20.97
2018-12-03T18:11:44.043Z,32.47
2018-12-03T18:14:43.325Z,23.53
2018-12-03T18:17:11.978Z,30.10
2018-12-03T18:19:40.256Z,24.43
2018-12-03T18:22:08.739Z,30.27
2018-12-03T18:24:37.058Z,29.00
2018-12-03T18:27:05.413Z,25.53
2018-12-03T18:29:33.718Z,30.47
2018-12-03T18:32:02.055Z,24.77
2018-12-03T18:34:30.363Z,39.57
2018-12-03T18:36:58.627Z,30.33
2018-12-03T18:39:26.888Z,27.97
2018-12-03T18:41:55.160Z,24.50
2018-12-03T18:44:23.431Z,23.83
2018-12-03T18:46:51.732Z,28.37
2018-12-03T18:49:27.637Z,30.37
2018-12-03T18:51:55.976Z,23.67
2018-12-03T18:54:24.333Z,23.77
2018-12-03T18:56:52.592Z,25.83
2018-12-03T18:59:20.888Z,23.80
2018-12-03T19:01:49.103Z,25.50
2018-12-03T19:04:17.382Z,25.80
2018-12-03T19:06:45.644Z,26.43
2018-12-03T19:09:13.996Z,24.30
2018-12-03T19:11:42.294Z,23.67
2018-12-03T19:14:10.653Z,27.23
2018-12-03T19:16:38.981Z,24.73
2018-12-03T19:19:07.230Z,25.33
2018-12-03T19:21:35.510Z,27.23
2018-12-03T19:24:04.060Z,23.03
2018-12-03T19:26:32.461Z,24.43
2018-12-03T19:29:00.852Z,23.13
2018-12-03T19:31:48.423Z,19.37
2018-12-03T19:34:16.758Z,25.67
2018-12-03T19:37:07.747Z,23.83
2018-12-03T19:39:36.125Z,22.63
2018-12-03T19:42:04.484Z,27.03
2018-12-03T19:44:33.878Z,26.97
2018-12-03T19:47:02.136Z,30.47
2018-12-03T19:49:30.519Z,26.93
2018-12-03T19:51:59.783Z,26.13
2018-12-03T19:54:28.099Z,27.50
2018-12-03T19:56:57.830Z,24.87
2018-12-03T19:59:28.753Z,24.43
2018-12-03T20:01:57.106Z,26.13
2018-12-03T20:04:30.737Z,42.30
2018-12-03T20:06:59.221Z,65.57
2018-12-03T20:09:27.638Z,35.07
2018-12-03T20:11:56.067Z,33.47
2018-12-03T20:14:24.393Z,37.13
2018-12-03T20:16:52.908Z,30.20
2018-12-03T20:19:21.223Z,39.90
2018-12-03T20:21:51.217Z,36.63
2018-12-03T20:24:22.259Z,31.27
2018-12-03T20:27:04.514Z,31.07
2018-12-03T20:29:39.236Z,24.77
2018-12-03T20:32:17.909Z,31.93
2018-12-03T20:34:54.396Z,28.77
2018-12-03T20:37:48.069Z,32.33
2018-12-03T20:40:45.149Z,31.40
2018-12-03T20:43:17.948Z,31.37
2018-12-03T20:45:57.914Z,30.70
2018-12-03T20:48:34.510Z,30.40
2018-12-03T20:51:10.378Z,24.17
2018-12-03T20:53:45.070Z,22.40
2018-12-03T20:56:13.968Z,24.57
2018-12-03T20:58:42.225Z,24.93
2018-12-03T21:01:10.647Z,27.13
2018-12-03T21:03:39.096Z,26.13
2018-12-03T21:06:07.410Z,22.80
2018-12-03T21:08:35.754Z,27.27
2018-12-03T21:11:04.187Z,23.33
2018-12-03T21:16:26.081Z,20.40
2018-12-03T21:18:54.577Z,20.83
2018-12-03T21:21:22.977Z,19.67
2018-12-03T21:23:51.264Z,13.83
2018-12-03T21:26:19.679Z,21.90
2018-12-03T21:28:47.931Z,19.60
2018-12-03T21:31:16.349Z,16.83
2018-12-03T21:33:44.591Z,19.90
2018-12-03T21:39:07.724Z,21.70
2018-12-03T21:41:36.090Z,19.37
2018-12-03T21:44:04.603Z,13.03
2018-12-03T21:46:32.877Z,15.23
2018-12-03T21:49:01.175Z,7.63
2018-12-03T21:51:29.550Z,9.67
2018-12-03T21:53:58.043Z,11.70
2018-12-03T21:56:26.458Z,8.97
2018-12-03T21:58:54.776Z,10.20
2018-12-03T22:01:23.183Z,10.67
2018-12-03T22:03:51.504Z,13.47
2018-12-03T22:06:19.794Z,9.27
2018-12-03T22:08:48.205Z,11.67
2018-12-03T22:11:16.513Z,11.60
2018-12-03T22:13:44.791Z,9.83
2018-12-03T22:16:13.169Z,10.30
2018-12-03T22:18:41.383Z,8.83
2018-12-03T22:21:09.757Z,4.63
2018-12-03T22:23:37.988Z,7.53
2018-12-03T22:26:06.362Z,6.67
2018-12-03T22:28:34.693Z,7.60
2018-12-03T22:31:03.078Z,7.23
2018-12-03T22:33:31.299Z,8.20
2018-12-03T22:35:59.550Z,6.50
2018-12-03T22:38:27.823Z,10.00
2018-12-03T22:40:56.082Z,7.33
2018-12-03T22:43:24.310Z,6.53
2018-12-03T22:45:52.598Z,7.33
2018-12-03T22:48:20.867Z,4.93
2018-12-03T22:50:49.209Z,7.10
2018-12-03T22:53:17.668Z,6.20
2018-12-03T22:55:45.994Z,8.60
2018-12-03T22:58:14.291Z,5.67
2018-12-03T23:00:44.714Z,8.63
2018-12-03T23:03:13.174Z,8.43
2018-12-03T23:05:41.487Z,6.97
2018-12-03T23:08:09.768Z,8.57
2018-12-03T23:10:38.025Z,7.87
2018-12-03T23:13:06.378Z,5.83
2018-12-03T23:15:34.720Z,6.63
2018-12-03T23:18:03.000Z,6.07
2018-12-03T23:20:31.470Z,8.23
2018-12-03T23:22:59.707Z,9.67
2018-12-03T23:25:27.999Z,7.60
2018-12-03T23:27:56.275Z,7.80
2018-12-03T23:30:24.732Z,10.53
2018-12-03T23:32:52.942Z,6.33
2018-12-03T23:35:21.235Z,12.93
2018-12-03T23:37:49.481Z,9.20
2018-12-03T23:40:17.728Z,7.17
2018-12-03T23:42:46.092Z,8.40
2018-12-03T23:45:14.432Z,9.03
2018-12-03T23:47:42.730Z,8.57
2018-12-03T23:50:11.056Z,7.73
2018-12-03T23:52:39.335Z,9.00
2018-12-03T23:55:07.646Z,9.33
2018-12-03T23:57:35.923Z,13.83
